Time;durP1;ratioP1;P1;durP2;ratioP2;P2;SDS_P1;SDS_P2;PMS_P1;PMS_P2;Temp;Humidity;BMP_temperature;BMP_pressure;BME280_temperature;BME280_humidity;BME280_pressure;Samples;Min_cycle;Max_cycle;Signal;HPM_P1;HPM_P2
2022/10/12 00:01:22;;;;;;;;;;;;;;;14.93;67.45;100332.91;5334382;26;34837;-90
2022/10/12 00:03:55;;;;;;;;;;;;;;;14.86;67.69;100326.06;5340491;26;32702;-91
2022/10/12 00:06:25;;;;;;;;;;;;;;;14.91;67.68;100329.44;5315081;26;35364;-91
2022/10/12 00:08:56;;;;;;;;;;;;;;;14.93;67.52;100330.28;5338212;26;35951;-92
2022/10/12 00:11:25;;;;;;;;;;;;;;;15.01;67.12;100329.25;5315163;26;36033;-89
2022/10/12 00:13:56;;;;;;;;;;;;;;;14.96;67.27;100326.75;5340729;26;32651;-96
2022/10/12 00:16:30;;;;;;;;;;;;;;;14.87;67.16;100326.94;5335808;26;34867;-89
2022/10/12 00:19:06;;;;;;;;;;;;;;;14.89;67.22;100323.41;5314458;26;32720;-91
2022/10/12 00:21:44;;;;;;;;;;;;;;;15.04;66.41;100330.03;5313315;26;35271;-90
2022/10/12 00:24:14;;;;;;;;;;;;;;;14.90;66.55;100330.31;5333248;26;33851;-92
2022/10/12 00:26:49;;;;;;;;;;;;;;;14.72;66.92;100325.50;5319640;26;34165;-90
2022/10/12 00:29:19;;;;;;;;;;;;;;;15.06;65.32;100330.88;5314960;26;35530;-90
2022/10/12 00:31:52;;;;;;;;;;;;;;;14.96;65.53;100331.13;5313680;26;35325;-93
2022/10/12 00:34:26;;;;;;;;;;;;;;;14.72;66.16;100334.19;5313236;26;33184;-89
2022/10/12 00:36:56;;;;;;;;;;;;;;;14.57;66.72;100333.59;5314116;26;32726;-93
2022/10/12 00:39:29;;;;;;;;;;;;;;;14.75;65.87;100322.81;5339552;26;34415;-93
2022/10/12 00:41:57;;;;;;;;;;;;;;;14.70;66.02;100330.72;5337930;26;35136;-90
2022/10/12 00:44:33;;;;;;;;;;;;;;;14.56;66.27;100327.53;5332694;26;33255;-91
2022/10/12 00:47:06;;;;;;;;;;;;;;;14.61;66.27;100322.22;5333834;26;34988;-95
2022/10/12 00:49:37;;;;;;;;;;;;;;;14.74;65.50;100326.31;5336173;26;34159;-90
2022/10/12 00:52:12;;;;;;;;;;;;;;;14.58;65.99;100324.91;5319112;26;33165;-90
2022/10/12 00:54:42;;;;;;;;;;;;;;;14.48;66.39;100326.81;5314065;26;34064;-90
2022/10/12 00:57:11;;;;;;;;;;;;;;;14.54;66.26;100331.91;5334452;26;34594;-89
2022/10/12 00:59:43;;;;;;;;;;;;;;;14.45;66.16;100327.72;5313519;26;33397;-90
2022/10/12 01:02:15;;;;;;;;;;;;;;;14.47;65.92;100331.16;5340179;26;35145;-92
2022/10/12 01:04:45;;;;;;;;;;;;;;;14.38;66.12;100327.88;5314984;26;35941;-90
2022/10/12 01:07:25;;;;;;;;;;;;;;;14.44;65.89;100331.19;5314088;26;36045;-93
2022/10/12 01:09:54;;;;;;;;;;;;;;;14.46;65.77;100334.66;5315624;26;32815;-94
2022/10/12 01:12:25;;;;;;;;;;;;;;;14.48;65.92;100334.63;5314002;26;35018;-91
2022/10/12 01:15:00;;;;;;;;;;;;;;;14.16;67.00;100343.03;5339997;26;33439;-90
2022/10/12 01:17:32;;;;;;;;;;;;;;;14.00;68.16;100347.66;5335654;26;34699;-95
2022/10/12 01:20:28;;;;;;;;;;;;;;;14.43;66.46;100346.91;5320550;26;35395;-94
2022/10/12 01:23:08;;;;;;;;;;;;;;;14.28;67.09;100345.44;5334951;26;33806;-90
2022/10/12 01:25:40;;;;;;;;;;;;;;;14.26;66.90;100358.50;5335184;26;34057;-91
2022/10/12 01:28:12;;;;;;;;;;;;;;;14.25;66.78;100350.69;5315724;26;32870;-94
2022/10/12 01:30:43;;;;;;;;;;;;;;;14.16;66.72;100359.56;5341252;26;33808;-90
2022/10/12 01:33:18;;;;;;;;;;;;;;;14.04;67.17;100349.34;5334957;26;35380;-90
2022/10/12 01:35:52;;;;;;;;;;;;;;;14.04;67.26;100360.62;5334620;26;32671;-94
2022/10/12 01:38:24;;;;;;;;;;;;;;;14.22;66.72;100362.06;5333815;26;34180;-93
2022/10/12 01:40:55;;;;;;;;;;;;;;;14.29;66.67;100363.66;5320109;26;34180;-92
2022/10/12 01:43:31;;;;;;;;;;;;;;;14.13;67.53;100358.75;5321083;26;35222;-91
2022/10/12 01:46:21;;;;;;;;;;;;;;;14.33;66.78;100361.00;5334137;26;32884;-93
2022/10/12 01:48:52;;;;;;;;;;;;;;;14.42;66.95;100355.63;5333302;26;34040;-96
2022/10/12 01:51:29;;;;;;;;;;;;;;;14.36;67.36;100361.81;5314155;26;32698;-92
2022/10/12 01:54:01;;;;;;;;;;;;;;;14.51;66.83;100355.44;5333735;26;35032;-90
2022/10/12 01:56:31;;;;;;;;;;;;;;;14.40;67.35;100366.09;5341061;26;33503;-90
2022/10/12 01:59:16;;;;;;;;;;;;;;;14.41;67.33;100359.97;5334676;26;34216;-94
2022/10/12 02:01:48;;;;;;;;;;;;;;;14.32;67.53;100362.75;5335260;26;34482;-90
2022/10/12 02:04:27;;;;;;;;;;;;;;;14.40;67.34;100368.72;5313414;26;34736;-90
2022/10/12 02:07:00;;;;;;;;;;;;;;;14.43;67.20;100378.25;5314719;26;34424;-92
2022/10/12 02:09:37;;;;;;;;;;;;;;;14.22;67.88;100367.28;5304133;26;34782;-91
2022/10/12 02:12:12;;;;;;;;;;;;;;;14.33;67.92;100363.59;5315155;26;34144;-92
2022/10/12 02:14:42;;;;;;;;;;;;;;;14.42;67.64;100363.44;5313084;26;35250;-91
2022/10/12 02:17:15;;;;;;;;;;;;;;;14.47;67.43;100367.72;5334694;26;33564;-89
2022/10/12 02:19:47;;;;;;;;;;;;;;;14.42;67.50;100366.06;5337475;26;33663;-91
2022/10/12 02:22:29;;;;;;;;;;;;;;;14.50;67.32;100362.44;5339735;26;33604;-91
2022/10/12 02:25:09;;;;;;;;;;;;;;;14.47;67.35;100362.50;5316719;26;37373;-94
2022/10/12 02:27:40;;;;;;;;;;;;;;;14.55;67.05;100358.91;5315392;26;31812;-91
2022/10/12 02:30:10;;;;;;;;;;;;;;;14.36;67.62;100364.44;5335841;26;34659;-90
2022/10/12 02:32:41;;;;;;;;;;;;;;;14.47;67.02;100361.59;5314560;26;36965;-94
2022/10/12 02:35:13;;;;;;;;;;;;;;;14.50;66.76;100353.75;5321092;26;32875;-92
2022/10/12 02:37:49;;;;;;;;;;;;;;;14.44;66.71;100357.31;5314114;26;34290;-89
2022/10/12 02:40:20;;;;;;;;;;;;;;;14.44;66.74;100354.69;5320276;26;34417;-92
2022/10/12 02:42:50;;;;;;;;;;;;;;;14.39;66.71;100353.94;5334698;26;35205;-90
2022/10/12 02:45:38;;;;;;;;;;;;;;;14.33;66.75;100356.66;5334633;26;33924;-90
2022/10/12 02:48:16;;;;;;;;;;;;;;;14.38;66.32;100354.81;5320881;26;32747;-90
2022/10/12 02:50:50;;;;;;;;;;;;;;;14.35;66.37;100354.00;5316750;26;33665;-91
2022/10/12 02:53:19;;;;;;;;;;;;;;;14.42;66.13;100360.84;5314378;26;35381;-92
2022/10/12 02:55:52;;;;;;;;;;;;;;;14.33;66.02;100359.28;5334284;26;34401;-92
2022/10/12 02:58:21;;;;;;;;;;;;;;;14.34;66.14;100360.97;5320644;26;34172;-92
2022/10/12 03:00:53;;;;;;;;;;;;;;;14.35;66.45;100361.84;5319946;26;34009;-91
2022/10/12 03:03:22;;;;;;;;;;;;;;;14.25;66.68;100366.34;5313362;26;34343;-94
2022/10/12 03:05:54;;;;;;;;;;;;;;;14.21;66.88;100369.94;5333736;26;34409;-89
2022/10/12 03:08:23;;;;;;;;;;;;;;;14.37;66.48;100365.28;5314951;26;34658;-91
2022/10/12 03:10:58;;;;;;;;;;;;;;;14.26;66.50;100365.50;5319868;26;32934;-90
2022/10/12 03:13:27;;;;;;;;;;;;;;;14.20;66.84;100363.81;5320048;26;33478;-88
2022/10/12 03:16:00;;;;;;;;;;;;;;;14.19;66.70;100366.47;5335158;26;33321;-90
2022/10/12 03:18:29;;;;;;;;;;;;;;;14.24;66.64;100369.88;5314449;26;33990;-94
2022/10/12 03:21:01;;;;;;;;;;;;;;;14.26;66.36;100374.16;5313593;26;33340;-90
2022/10/12 03:26:24;;;;;;;;;;;;;;;14.01;67.26;100372.84;5340187;26;34043;-91
2022/10/12 03:28:54;;;;;;;;;;;;;;;13.90;67.62;100372.19;5334825;26;34470;-96
2022/10/12 03:31:24;;;;;;;;;;;;;;;13.88;67.43;100369.59;5334136;26;33697;-93
2022/10/12 03:33:55;;;;;;;;;;;;;;;13.83;67.38;100371.41;5314128;26;34619;-90
2022/10/12 03:36:26;;;;;;;;;;;;;;;13.72;68.02;100370.69;5320808;26;33942;-94
2022/10/12 03:38:55;;;;;;;;;;;;;;;13.79;67.78;100369.72;5334099;26;32445;-93
2022/10/12 03:41:27;;;;;;;;;;;;;;;13.96;67.09;100365.09;5318633;26;34504;-90
2022/10/12 03:43:57;;;;;;;;;;;;;;;13.74;67.85;100363.72;5314245;26;34162;-92
2022/10/12 03:46:28;;;;;;;;;;;;;;;13.73;68.29;100364.62;5314780;26;35152;-92
2022/10/12 03:48:56;;;;;;;;;;;;;;;13.77;68.16;100367.16;5340671;26;32633;-90
2022/10/12 03:51:30;;;;;;;;;;;;;;;13.91;67.95;100372.13;5317837;26;34120;-94
2022/10/12 03:53:59;;;;;;;;;;;;;;;13.76;68.47;100367.16;5313788;26;33769;-90
2022/10/12 03:56:29;;;;;;;;;;;;;;;13.99;67.75;100367.69;5334111;26;34393;-92
2022/10/12 03:58:59;;;;;;;;;;;;;;;13.83;68.49;100361.84;5340221;26;32805;-92
2022/10/12 04:01:31;;;;;;;;;;;;;;;13.73;69.09;100364.62;5333830;26;33501;-91
2022/10/12 04:04:01;;;;;;;;;;;;;;;13.90;68.63;100364.34;5335643;26;34243;-94
2022/10/12 04:06:35;;;;;;;;;;;;;;;13.91;68.48;100366.91;5336480;26;33773;-89
2022/10/12 04:09:04;;;;;;;;;;;;;;;13.95;68.44;100355.56;5315090;26;32948;-91
2022/10/12 04:11:36;;;;;;;;;;;;;;;14.05;68.25;100362.34;5341293;26;34345;-90
2022/10/12 04:14:05;;;;;;;;;;;;;;;14.02;68.05;100361.53;5334508;26;35182;-94
2022/10/12 04:16:43;;;;;;;;;;;;;;;14.09;68.05;100361.41;5295540;26;36410;-92
2022/10/12 04:19:20;;;;;;;;;;;;;;;14.02;68.05;100362.41;5335227;26;33041;-90
2022/10/12 04:21:50;;;;;;;;;;;;;;;14.12;67.84;100364.88;5334026;26;34248;-94
2022/10/12 04:24:21;;;;;;;;;;;;;;;14.12;67.76;100368.31;5319874;26;34864;-91
2022/10/12 04:26:52;;;;;;;;;;;;;;;14.06;68.08;100363.19;5332916;26;33782;-90
2022/10/12 04:29:23;;;;;;;;;;;;;;;14.04;67.92;100371.06;5339831;26;32858;-93
2022/10/12 04:31:53;;;;;;;;;;;;;;;14.03;68.11;100366.72;5333736;26;34783;-91
2022/10/12 04:34:30;;;;;;;;;;;;;;;14.00;68.24;100366.78;5340605;26;35162;-94
2022/10/12 04:37:05;;;;;;;;;;;;;;;14.07;67.96;100373.63;5317715;26;34364;-90
2022/10/12 04:39:36;;;;;;;;;;;;;;;14.05;67.96;100367.56;5335737;26;33110;-92
2022/10/12 04:42:08;;;;;;;;;;;;;;;13.84;68.53;100365.28;5295000;26;34154;-90
2022/10/12 04:44:36;;;;;;;;;;;;;;;14.08;67.92;100364.88;5313128;26;33187;-90
2022/10/12 04:47:09;;;;;;;;;;;;;;;14.21;67.57;100369.94;5320665;26;34797;-91
2022/10/12 04:49:38;;;;;;;;;;;;;;;14.14;67.78;100370.91;5296583;26;34428;-92
2022/10/12 04:52:11;;;;;;;;;;;;;;;14.09;68.08;100371.00;5333089;26;32975;-91
2022/10/12 04:54:40;;;;;;;;;;;;;;;14.15;67.65;100373.47;5331741;26;35140;-90
2022/10/12 04:57:10;;;;;;;;;;;;;;;14.03;68.03;100371.94;5313274;26;34366;-91
2022/10/12 04:59:38;;;;;;;;;;;;;;;14.02;68.18;100378.06;5320408;26;33444;-91
2022/10/12 05:02:11;;;;;;;;;;;;;;;13.99;68.38;100378.12;5334035;26;33246;-93
2022/10/12 05:04:40;;;;;;;;;;;;;;;14.08;68.35;100387.50;5312696;26;35654;-90
2022/10/12 05:07:14;;;;;;;;;;;;;;;14.17;68.27;100382.16;5313495;26;34333;-93
2022/10/12 05:09:43;;;;;;;;;;;;;;;14.22;68.27;100382.94;5321449;26;33285;-94
2022/10/12 05:12:16;;;;;;;;;;;;;;;14.17;68.50;100389.97;5339686;26;34048;-90
2022/10/12 05:14:46;;;;;;;;;;;;;;;14.14;68.62;100387.44;5314824;26;33198;-91
2022/10/12 05:17:19;;;;;;;;;;;;;;;14.12;68.90;100389.19;5314712;26;33088;-95
2022/10/12 05:19:47;;;;;;;;;;;;;;;14.22;68.44;100393.37;5336901;26;33032;-95
2022/10/12 05:22:20;;;;;;;;;;;;;;;14.24;68.52;100388.12;5321629;26;35332;-91
2022/10/12 05:24:51;;;;;;;;;;;;;;;14.30;68.26;100388.00;5314147;26;34333;-92
2022/10/12 05:27:29;;;;;;;;;;;;;;;14.29;68.46;100391.53;5314271;26;34528;-91
2022/10/12 05:30:06;;;;;;;;;;;;;;;14.27;68.84;100393.28;5334685;26;32950;-91
2022/10/12 05:32:36;;;;;;;;;;;;;;;14.45;68.13;100398.22;5295571;26;34577;-95
2022/10/12 05:35:10;;;;;;;;;;;;;;;14.25;69.33;100395.91;5320710;26;34370;-93
2022/10/12 05:37:41;;;;;;;;;;;;;;;14.34;69.33;100394.91;5334472;26;33935;-91
2022/10/12 05:40:19;;;;;;;;;;;;;;;14.46;69.39;100396.44;5315587;26;34445;-91
2022/10/12 05:43:01;;;;;;;;;;;;;;;14.43;70.08;100399.97;5313307;26;34196;-90
2022/10/12 05:45:33;;;;;;;;;;;;;;;14.65;69.70;100402.25;5333252;26;35258;-92
2022/10/12 05:48:02;;;;;;;;;;;;;;;14.71;69.82;100402.09;5340672;26;34603;-89
2022/10/12 05:50:31;;;;;;;;;;;;;;;14.69;70.48;100402.16;5337551;26;32875;-94
2022/10/12 05:53:01;;;;;;;;;;;;;;;14.86;70.40;100407.06;5313652;26;33341;-88
2022/10/12 05:55:33;;;;;;;;;;;;;;;15.06;69.91;100413.66;5334485;26;34393;-89
2022/10/12 05:58:02;;;;;;;;;;;;;;;15.17;70.04;100416.87;5340839;26;33087;-91
2022/10/12 06:00:36;;;;;;;;;;;;;;;15.19;70.82;100411.62;5341122;26;32753;-93
2022/10/12 06:03:05;;;;;;;;;;;;;;;15.32;71.26;100411.34;5333850;26;34257;-91
2022/10/12 06:05:35;;;;;;;;;;;;;;;15.54;71.03;100410.91;5334433;26;34100;-91
2022/10/12 06:08:07;;;;;;;;;;;;;;;15.61;71.49;100415.09;5334732;26;35401;-93
2022/10/12 06:11:01;;;;;;;;;;;;;;;15.70;71.28;100419.28;5344707;26;35801;-90
2022/10/12 06:13:43;;;;;;;;;;;;;;;15.84;68.99;100413.72;5325338;26;35213;-90
2022/10/12 06:16:13;;;;;;;;;;;;;;;16.17;66.44;100418.16;5343540;26;33774;-89
2022/10/12 06:18:44;;;;;;;;;;;;;;;16.01;66.24;100416.81;5320350;26;35398;-90
2022/10/12 06:21:14;;;;;;;;;;;;;;;16.04;65.73;100415.88;5323162;26;33689;-91
2022/10/12 06:24:08;;;;;;;;;;;;;;;16.28;65.14;100424.88;5326267;26;35067;-90
2022/10/12 06:26:38;;;;;;;;;;;;;;;16.28;63.97;100423.13;5349418;26;35484;-89
2022/10/12 06:29:09;;;;;;;;;;;;;;;16.45;63.66;100430.53;5343415;26;33591;-89
2022/10/12 06:31:38;;;;;;;;;;;;;;;16.59;62.71;100424.97;5343595;26;32823;-90
2022/10/12 06:34:11;;;;;;;;;;;;;;;16.60;62.15;100429.31;5299927;26;34456;-89
2022/10/12 06:36:41;;;;;;;;;;;;;;;16.57;62.15;100432.00;5348030;26;33826;-89
2022/10/12 06:39:12;;;;;;;;;;;;;;;16.72;61.25;100428.09;5328240;26;34932;-89
2022/10/12 06:41:42;;;;;;;;;;;;;;;16.70;61.26;100435.19;5321784;26;34314;-89
2022/10/12 06:44:12;;;;;;;;;;;;;;;16.72;61.23;100434.22;5319249;26;35459;-90
2022/10/12 06:46:42;;;;;;;;;;;;;;;16.73;61.16;100435.09;5321908;26;32693;-90
2022/10/12 06:49:11;;;;;;;;;;;;;;;16.71;61.13;100445.59;5327689;26;35291;-90
2022/10/12 06:51:42;;;;;;;;;;;;;;;16.84;60.85;100438.28;5347032;26;33657;-89
2022/10/12 06:54:18;;;;;;;;;;;;;;;16.98;60.30;100436.16;5305660;26;34635;-89
2022/10/12 06:56:47;;;;;;;;;;;;;;;16.80;61.14;100444.53;5320500;26;35111;-88
2022/10/12 06:59:18;;;;;;;;;;;;;;;17.04;60.36;100453.50;5325661;26;32382;-90
2022/10/12 07:01:46;;;;;;;;;;;;;;;17.00;60.21;100447.47;5326625;26;33572;-89
2022/10/12 07:04:20;;;;;;;;;;;;;;;17.15;59.72;100450.56;5339720;26;33905;-89
2022/10/12 07:06:48;;;;;;;;;;;;;;;17.22;59.81;100449.47;5334503;26;34269;-90
2022/10/12 07:09:21;;;;;;;;;;;;;;;17.26;59.89;100448.50;5338271;26;33635;-93
2022/10/12 07:11:53;;;;;;;;;;;;;;;17.02;60.76;100445.66;5325328;26;32050;-89
2022/10/12 07:14:25;;;;;;;;;;;;;;;17.22;60.21;100449.47;5341735;26;35524;-91
2022/10/12 07:16:54;;;;;;;;;;;;;;;17.31;59.67;100451.84;5323330;26;35108;-91
2022/10/12 07:19:25;;;;;;;;;;;;;;;17.41;59.24;100448.06;5345453;26;34122;-90
2022/10/12 07:24:38;;;;;;;;;;;;;;;17.36;60.33;100446.47;5328115;26;35358;-90
2022/10/12 07:27:14;;;;;;;;;;;;;;;17.60;59.63;100444.91;5342452;26;34499;-92
2022/10/12 07:29:49;;;;;;;;;;;;;;;17.72;58.37;100441.91;5344378;26;34277;-89
2022/10/12 07:32:20;;;;;;;;;;;;;;;17.68;58.29;100448.13;5323933;26;34637;-89
2022/10/12 07:34:50;;;;;;;;;;;;;;;17.58;57.92;100438.81;5323665;26;32277;-90
2022/10/12 07:37:21;;;;;;;;;;;;;;;17.65;57.06;100448.22;5328393;26;36359;-89
2022/10/12 07:39:56;;;;;;;;;;;;;;;17.38;57.66;100436.81;5323715;26;34040;-91
2022/10/12 07:42:35;;;;;;;;;;;;;;;17.76;56.18;100442.66;5320926;26;35302;-89
2022/10/12 07:45:27;;;;;;;;;;;;;;;17.90;55.79;100440.47;5342284;26;34867;-89
2022/10/12 07:47:59;;;;;;;;;;;;;;;17.98;55.28;100442.91;5342700;26;34517;-92
2022/10/12 07:50:52;;;;;;;;;;;;;;;17.99;55.05;100440.19;5325680;26;33922;-89
2022/10/12 07:53:33;;;;;;;;;;;;;;;18.07;54.20;100442.56;5325708;26;34183;-90
2022/10/12 08:00:13;;;;;;;;;;;;;;;18.22;53.30;100444.72;5324729;26;34501;-90
2022/10/12 08:21:24;;;;;;;;;;;;;;;18.76;52.49;100451.66;4484465;31;33650;-91
2022/10/12 10:10:47;;;;;;;;;;;;;;;20.70;47.57;100446.00;850321;27;20185;-88
2022/10/12 10:27:49;;;;;;;;;;;;;;;20.91;46.79;100442.44;4314594;33;33292;-90
2022/10/12 10:34:11;;;;;;;;;;;;;;;21.29;45.47;100447.78;4312520;33;35091;-90
2022/10/12 11:59:16;;;;;;;;;;;;;;;22.44;42.74;100417.66;4179953;34;32386;-91
2022/10/12 12:42:49;;;;;;;;;;;;;;;22.42;42.82;100380.72;4418973;31;1212452;-90
2022/10/12 12:55:49;;;;;;;;;;;;;;;22.08;41.98;100385.03;4463086;32;33543;-90
2022/10/12 12:58:48;;;;;;;;;;;;;;;22.13;42.58;100376.88;4464418;32;33183;-92
2022/10/12 13:01:31;;;;;;;;;;;;;;;22.12;42.63;100375.19;4471499;32;33777;-93
2022/10/12 13:04:07;;;;;;;;;;;;;;;21.89;42.13;100371.91;4476195;32;34455;-92
2022/10/12 13:13:01;;;;;;;;;;;;;;;22.37;41.50;100380.09;4482127;32;33302;-91
2022/10/12 13:15:41;;;;;;;;;;;;;;;21.91;41.92;100375.31;4432391;31;32990;-92
2022/10/12 13:18:28;;;;;;;;;;;;;;;22.24;41.83;100377.25;4476567;31;34155;-89
2022/10/12 13:24:25;;;;;;;;;;;;;;;22.27;41.83;100369.16;4470088;32;34026;-93
2022/10/12 13:33:06;;;;;;;;;;;;;;;22.43;43.24;100360.44;4460976;32;32073;-93
2022/10/12 13:38:55;;;;;;;;;;;;;;;22.31;43.56;100372.50;4420819;32;34030;-93
2022/10/12 13:45:03;;;;;;;;;;;;;;;22.30;42.72;100365.50;4400373;32;32534;-92
2022/10/12 13:47:32;;;;;;;;;;;;;;;22.28;43.97;100367.38;4408725;32;34598;-92
2022/10/12 13:50:04;;;;;;;;;;;;;;;21.84;43.21;100358.06;4409463;32;34511;-91
2022/10/12 13:52:35;;;;;;;;;;;;;;;22.06;43.50;100360.50;4400109;32;33822;-90
2022/10/12 13:55:15;;;;;;;;;;;;;;;22.11;42.94;100361.12;4389951;32;32347;-91
2022/10/12 13:57:49;;;;;;;;;;;;;;;21.96;42.71;100361.88;4401595;32;33851;-91
2022/10/12 14:00:23;;;;;;;;;;;;;;;22.13;42.72;100361.03;4392528;32;33833;-90
2022/10/12 14:02:56;;;;;;;;;;;;;;;22.02;42.73;100360.72;4401668;32;33437;-92
2022/10/12 14:05:30;;;;;;;;;;;;;;;22.22;41.47;100359.75;4403270;32;33319;-93
2022/10/12 14:08:03;;;;;;;;;;;;;;;21.89;41.87;100355.19;4400861;32;33894;-91
2022/10/12 14:10:35;;;;;;;;;;;;;;;22.03;42.17;100352.72;4403660;32;34190;-93
2022/10/12 14:13:06;;;;;;;;;;;;;;;22.02;42.70;100350.16;4401230;32;33915;-92
2022/10/12 14:15:42;;;;;;;;;;;;;;;22.13;42.65;100356.63;4427893;32;33844;-91
2022/10/12 14:18:25;;;;;;;;;;;;;;;22.04;42.82;100357.06;4448922;32;32409;-91
2022/10/12 14:21:03;;;;;;;;;;;;;;;21.95;41.88;100353.09;4460475;32;35471;-90
2022/10/12 14:23:33;;;;;;;;;;;;;;;22.02;41.87;100356.28;4456848;32;35988;-89
2022/10/12 14:26:24;;;;;;;;;;;;;;;21.95;41.90;100349.59;4450255;32;33366;-91
2022/10/12 14:28:53;;;;;;;;;;;;;;;21.92;42.30;100347.12;4449928;32;34535;-90
2022/10/12 14:31:41;;;;;;;;;;;;;;;21.81;42.56;100350.28;4464905;32;34159;-90
2022/10/12 14:34:29;;;;;;;;;;;;;;;21.68;43.40;100339.47;4464232;32;33939;-90
2022/10/12 14:37:20;;;;;;;;;;;;;;;21.68;43.39;100342.13;4440489;32;32712;-89
2022/10/12 14:40:02;;;;;;;;;;;;;;;21.55;44.07;100343.62;4457697;32;33663;-92
2022/10/12 14:42:32;;;;;;;;;;;;;;;21.58;45.00;100345.28;4454732;32;34041;-91
2022/10/12 14:45:22;;;;;;;;;;;;;;;21.52;45.52;100338.50;4474686;32;33961;-91
2022/10/12 14:47:52;;;;;;;;;;;;;;;21.47;45.99;100337.88;4471112;32;33412;-89
2022/10/12 14:50:22;;;;;;;;;;;;;;;21.38;46.54;100348.81;4469627;32;33570;-89
2022/10/12 14:52:51;;;;;;;;;;;;;;;21.46;46.68;100344.94;4456771;32;33276;-90
2022/10/12 14:55:25;;;;;;;;;;;;;;;21.48;46.96;100345.72;4470502;32;33644;-89
2022/10/12 14:57:54;;;;;;;;;;;;;;;21.42;47.27;100340.72;4471334;32;32370;-92
2022/10/12 15:00:25;;;;;;;;;;;;;;;21.29;47.82;100343.06;4453249;32;32281;-94
2022/10/12 15:02:54;;;;;;;;;;;;;;;21.18;48.30;100342.72;4456623;32;33618;-90
2022/10/12 15:05:27;;;;;;;;;;;;;;;21.07;48.83;100339.72;4471476;32;34678;-91
2022/10/12 15:07:56;;;;;;;;;;;;;;;21.00;49.08;100340.94;4471398;32;33845;-91
2022/10/12 15:10:28;;;;;;;;;;;;;;;20.94;49.24;100335.94;4470063;32;32770;-90
2022/10/12 15:12:57;;;;;;;;;;;;;;;20.90;49.46;100335.22;4471415;32;33650;-90
2022/10/12 15:15:37;;;;;;;;;;;;;;;20.87;49.69;100336.19;4476484;32;33615;-93
2022/10/12 15:18:09;;;;;;;;;;;;;;;20.82;49.95;100337.34;4483081;32;34237;-90
2022/10/12 15:20:39;;;;;;;;;;;;;;;20.64;49.95;100341.66;4454308;32;35324;-91
2022/10/12 15:23:22;;;;;;;;;;;;;;;20.50;50.55;100339.59;4464563;32;35311;-92
2022/10/12 15:25:58;;;;;;;;;;;;;;;20.45;50.74;100338.94;4451400;32;32604;-90
2022/10/12 15:28:38;;;;;;;;;;;;;;;20.34;51.14;100338.56;4455920;32;32364;-89
2022/10/12 15:31:10;;;;;;;;;;;;;;;20.25;51.58;100342.47;4470445;32;33108;-88
2022/10/12 15:33:47;;;;;;;;;;;;;;;20.14;51.88;100340.25;4473884;32;34103;-89
2022/10/12 15:36:16;;;;;;;;;;;;;;;20.14;52.00;100336.78;4477273;32;33686;-90
2022/10/12 15:38:53;;;;;;;;;;;;;;;20.03;51.75;100339.88;4458841;32;32807;-92
2022/10/12 15:41:29;;;;;;;;;;;;;;;19.82;52.20;100333.72;4461621;32;35228;-90
2022/10/12 15:44:04;;;;;;;;;;;;;;;19.77;52.46;100341.81;4459528;32;32394;-93
2022/10/12 15:46:32;;;;;;;;;;;;;;;19.69;52.86;100330.75;4454945;32;31917;-92
2022/10/12 15:49:06;;;;;;;;;;;;;;;19.57;53.17;100332.06;4450437;32;33215;-90
2022/10/12 15:51:36;;;;;;;;;;;;;;;19.59;53.27;100337.25;4462649;32;34105;-93
2022/10/12 15:54:05;;;;;;;;;;;;;;;19.54;53.23;100326.88;4466790;32;34694;-89
2022/10/12 15:56:34;;;;;;;;;;;;;;;19.51;53.28;100340.19;4468039;32;34219;-89
2022/10/12 15:59:04;;;;;;;;;;;;;;;19.42;53.56;100337.91;4462579;32;34646;-90
2022/10/12 16:01:35;;;;;;;;;;;;;;;19.33;53.67;100333.88;4462026;32;35244;-89
2022/10/12 16:04:08;;;;;;;;;;;;;;;19.15;54.05;100337.22;4463661;32;34320;-90
2022/10/12 16:06:37;;;;;;;;;;;;;;;18.97;54.54;100337.00;4454982;32;32674;-89
2022/10/12 16:09:12;;;;;;;;;;;;;;;18.85;54.74;100337.47;4463820;32;34301;-90
2022/10/12 16:11:42;;;;;;;;;;;;;;;18.81;54.99;100340.25;4464539;32;33716;-90
2022/10/12 16:14:11;;;;;;;;;;;;;;;18.79;55.37;100336.81;4465466;32;35078;-90
2022/10/12 16:16:40;;;;;;;;;;;;;;;18.70;55.73;100351.09;4464759;32;34258;-90
2022/10/12 16:19:13;;;;;;;;;;;;;;;18.64;55.72;100344.31;4469074;32;32647;-90
2022/10/12 16:21:42;;;;;;;;;;;;;;;18.57;55.90;100340.19;4464857;32;33716;-88
2022/10/12 16:24:12;;;;;;;;;;;;;;;18.61;55.76;100340.97;4464516;32;34365;-89
2022/10/12 16:26:46;;;;;;;;;;;;;;;18.40;56.06;100337.31;4467712;32;34478;-89
2022/10/12 16:29:15;;;;;;;;;;;;;;;18.18;56.50;100335.44;4457011;32;31637;-90
2022/10/12 16:31:45;;;;;;;;;;;;;;;18.11;56.62;100341.78;4465770;32;34298;-93
2022/10/12 16:34:17;;;;;;;;;;;;;;;18.17;56.37;100343.34;4479307;32;34097;-88
2022/10/12 16:36:48;;;;;;;;;;;;;;;18.16;56.24;100347.75;4475137;32;33613;-91
2022/10/12 16:39:17;;;;;;;;;;;;;;;18.19;55.98;100341.53;4463226;32;31965;-90
2022/10/12 16:41:47;;;;;;;;;;;;;;;18.07;56.24;100341.06;4480575;32;33451;-89
2022/10/12 16:44:18;;;;;;;;;;;;;;;18.04;56.27;100342.91;4481829;32;35084;-89
2022/10/12 16:46:47;;;;;;;;;;;;;;;18.20;55.96;100338.87;4482074;32;34566;-89
2022/10/12 16:49:16;;;;;;;;;;;;;;;18.09;56.26;100344.47;4453720;32;33048;-92
2022/10/12 16:51:48;;;;;;;;;;;;;;;17.89;56.72;100342.50;4462447;32;36699;-89
2022/10/12 16:54:19;;;;;;;;;;;;;;;17.83;57.01;100341.84;4461491;32;33450;-89
2022/10/12 16:56:54;;;;;;;;;;;;;;;17.63;57.60;100334.59;4467253;32;33421;-90
2022/10/12 16:59:24;;;;;;;;;;;;;;;17.75;57.70;100352.56;4461740;32;33153;-93
2022/10/12 17:01:52;;;;;;;;;;;;;;;17.64;58.05;100349.44;4463970;32;34183;-89
2022/10/12 17:04:20;;;;;;;;;;;;;;;17.80;57.79;100355.94;4482723;32;33893;-95
2022/10/12 17:06:53;;;;;;;;;;;;;;;17.68;57.96;100354.53;4476767;31;34354;-90
2022/10/12 17:09:24;;;;;;;;;;;;;;;17.54;58.44;100356.75;4469396;32;34216;-89
2022/10/12 17:11:55;;;;;;;;;;;;;;;17.46;58.73;100362.22;4472311;32;34713;-94
2022/10/12 17:14:25;;;;;;;;;;;;;;;17.42;58.79;100354.47;4475914;32;33750;-93
2022/10/12 17:16:56;;;;;;;;;;;;;;;17.25;59.26;100349.75;4473462;32;34669;-91
2022/10/12 17:19:31;;;;;;;;;;;;;;;17.31;59.19;100346.94;4472428;32;32787;-89
2022/10/12 17:22:03;;;;;;;;;;;;;;;17.23;59.38;100352.44;4459072;32;33172;-91
2022/10/12 17:24:34;;;;;;;;;;;;;;;17.28;59.44;100349.69;4468467;32;34026;-89
2022/10/12 17:27:07;;;;;;;;;;;;;;;17.14;59.83;100359.72;4475696;32;33435;-91
2022/10/12 17:29:38;;;;;;;;;;;;;;;17.05;60.00;100348.56;4470345;32;32773;-89
2022/10/12 17:32:14;;;;;;;;;;;;;;;17.03;60.35;100355.66;4470800;32;34261;-90
2022/10/12 17:34:49;;;;;;;;;;;;;;;16.97;60.51;100358.44;4471212;32;34443;-88
2022/10/12 17:37:30;;;;;;;;;;;;;;;16.96;60.67;100356.72;4455511;32;32718;-90
2022/10/12 17:40:03;;;;;;;;;;;;;;;17.09;60.47;100361.63;4456325;32;32607;-89
2022/10/12 17:42:34;;;;;;;;;;;;;;;17.16;60.25;100366.63;4464050;32;34177;-94
2022/10/12 17:45:12;;;;;;;;;;;;;;;17.03;60.49;100360.91;4463328;32;35715;-92
2022/10/12 17:47:43;;;;;;;;;;;;;;;16.95;60.38;100360.25;4468671;32;33969;-89
2022/10/12 17:50:12;;;;;;;;;;;;;;;16.86;60.59;100368.34;4451582;32;32235;-91
2022/10/12 17:52:44;;;;;;;;;;;;;;;16.68;60.94;100366.25;4476027;32;34300;-90
2022/10/12 17:55:14;;;;;;;;;;;;;;;16.45;61.84;100372.06;4451264;32;33070;-89
2022/10/12 18:00:39;;;;;;;;;;;;;;;16.65;61.23;100361.94;4462207;32;32887;-89
2022/10/12 18:03:11;;;;;;;;;;;;;;;16.58;61.28;100366.47;4459126;32;34244;-89
2022/10/12 18:05:40;;;;;;;;;;;;;;;16.43;61.70;100375.59;4452974;32;32930;-89
2022/10/12 18:08:13;;;;;;;;;;;;;;;16.42;61.65;100370.41;4476089;32;33918;-89
2022/10/12 18:10:41;;;;;;;;;;;;;;;16.47;61.40;100362.44;4463146;32;32516;-91
2022/10/12 18:13:14;;;;;;;;;;;;;;;16.39;61.51;100366.09;4471231;32;34445;-89
2022/10/12 18:15:44;;;;;;;;;;;;;;;16.46;61.47;100361.56;4463345;32;32553;-91
2022/10/12 18:18:13;;;;;;;;;;;;;;;16.47;61.56;100359.81;4459224;32;33545;-93